Metar z połowy godziny Komunikat METAR ze strony awiacja.imgw.pl Metar G30 EPKK METAR EPKK 231230Z VRB04KT 9999 FEW035TCU 23/10 Q1012 =